KDAL/DAL METAR and TAF weather

Enter ICAO airport designator
Station Type Date Time Source
KDAL METAR 2021/10/22 18:53 UTC NOAA

KDAL 221853Z 17005KT 10SM FEW250 27/12 A3004 RMK AO2 SLP166 T02720117 $


Station Type Date Time Source
KDAL Decoded METAR 2021/10/22 18:53 UTC NOAA

DALLAS LOVE FIELD, TX, United States (KDAL) 32-51N 096-51W 158M
Oct 22, 2021 - 02:53 PM EDT / 2021.10.22 1853 UTC
Wind: from the S (170 degrees) at 6 MPH (5 KT):0
Visibility: 10 mile(s):0
Sky conditions: mostly clear
Temperature: 81.0 F (27.2 C)
Dew Point: 53.1 F (11.7 C)
Relative Humidity: 38%
Pressure (altimeter): 30.04 in. Hg (1017 hPa)
ob: KDAL 221853Z 17005KT 10SM FEW250 27/12 A3004 RMK AO2 SLP166 T02720117
cycle: 19

Station Type Date Time Source
KDAL TAF 2021/10/22 18:40 UTC NOAA

TAF KDAL 221738Z 2218/2318 15005KT P6SM SCT250
FM231300 19010KT P6SM SCT025
FM231700 19014KT P6SM SCT050

Example: see airport list